Time;durP1;ratioP1;P1;durP2;ratioP2;P2;SDS_P1;SDS_P2;PMS_P1;PMS_P2;Temp;Humidity;BMP_temperature;BMP_pressure;BME280_temperature;BME280_humidity;BME280_pressure;Samples;Min_cycle;Max_cycle;Signal;HPM_P1;HPM_P2
2023/05/13 00:01:06;;;;;;;2.10;1.83;;;11.50;99.90;;;;;;5109658;28;20654;-70
2023/05/13 00:03:33;;;;;;;1.80;1.70;;;11.50;99.90;;;;;;5109795;28;20627;-70
2023/05/13 00:06:01;;;;;;;2.50;2.30;;;11.60;99.90;;;;;;5104169;27;20650;-70
2023/05/13 00:08:30;;;;;;;2.20;2.00;;;11.50;99.90;;;;;;5106512;28;20698;-70
2023/05/13 00:10:59;;;;;;;1.70;1.50;;;11.60;99.90;;;;;;5109027;28;20649;-70
2023/05/13 00:13:26;;;;;;;1.80;1.63;;;11.60;99.90;;;;;;5109063;28;20626;-71
2023/05/13 00:15:53;;;;;;;3.90;1.70;;;11.60;99.90;;;;;;5101012;28;20945;-70
2023/05/13 00:18:20;;;;;;;1.90;1.80;;;11.60;99.90;;;;;;5108793;27;20744;-70
2023/05/13 00:20:47;;;;;;;2.00;1.90;;;11.60;99.90;;;;;;5108225;28;20649;-70
2023/05/13 00:23:13;;;;;;;2.77;1.50;;;11.50;99.90;;;;;;5108266;28;20726;-70
2023/05/13 00:25:42;;;;;;;3.50;1.80;;;11.50;99.90;;;;;;5109149;28;20674;-70
2023/05/13 00:28:12;;;;;;;2.67;2.03;;;11.60;99.90;;;;;;5108963;28;20686;-69
2023/05/13 00:30:40;;;;;;;2.00;1.50;;;11.60;99.90;;;;;;5108200;28;20744;-70
2023/05/13 00:33:07;;;;;;;1.93;1.83;;;11.50;99.90;;;;;;5106064;28;20617;-70
2023/05/13 00:35:34;;;;;;;1.50;1.40;;;11.50;99.90;;;;;;5108850;28;20646;-70
2023/05/13 00:38:01;;;;;;;3.13;2.20;;;11.50;99.90;;;;;;5108798;28;20621;-70
2023/05/13 00:40:28;;;;;;;1.70;1.53;;;11.50;99.90;;;;;;5108251;28;20796;-70
2023/05/13 00:42:56;;;;;;;2.60;2.40;;;11.40;99.90;;;;;;5108752;28;20760;-70
2023/05/13 00:45:24;;;;;;;1.50;1.40;;;11.40;99.90;;;;;;5100748;28;20721;-70
2023/05/13 00:47:51;;;;;;;2.30;2.10;;;11.30;99.90;;;;;;5108755;28;20657;-70
2023/05/13 00:50:18;;;;;;;1.60;1.40;;;11.40;99.90;;;;;;5107702;28;20625;-70
2023/05/13 00:52:46;;;;;;;1.30;1.20;;;11.40;99.90;;;;;;5108273;28;20630;-70
2023/05/13 00:55:13;;;;;;;2.13;1.97;;;11.40;99.90;;;;;;5108718;28;20614;-70
2023/05/13 00:57:40;;;;;;;2.20;2.00;;;11.50;99.90;;;;;;5108351;28;20629;-70
2023/05/13 01:00:08;;;;;;;1.60;1.50;;;11.50;99.90;;;;;;5107816;28;20621;-70
2023/05/13 01:02:43;;;;;;;2.40;2.20;;;11.50;99.90;;;;;;5107763;28;20763;-70
2023/05/13 01:05:17;;;;;;;2.00;1.60;;;11.50;99.90;;;;;;5106587;28;20624;-70
2023/05/13 01:07:50;;;;;;;1.90;1.70;;;11.50;99.90;;;;;;5100028;28;20622;-70
2023/05/13 01:10:23;;;;;;;2.37;2.17;;;11.60;99.90;;;;;;5107513;28;21229;-70
2023/05/13 01:12:56;;;;;;;2.70;2.50;;;11.60;99.90;;;;;;5099583;28;20626;-70
2023/05/13 01:15:26;;;;;;;2.37;2.17;;;11.60;99.90;;;;;;5108325;28;20753;-70
2023/05/13 01:18:00;;;;;;;2.80;2.60;;;11.70;99.90;;;;;;5108470;28;20613;-71
2023/05/13 01:20:30;;;;;;;2.47;1.90;;;11.70;99.90;;;;;;5106869;28;21274;-70
2023/05/13 01:22:58;;;;;;;1.53;1.43;;;11.50;99.90;;;;;;5108282;28;20630;-70
2023/05/13 01:25:26;;;;;;;2.50;2.30;;;11.50;99.90;;;;;;5107024;28;20749;-69
2023/05/13 01:27:54;;;;;;;2.13;1.93;;;11.50;99.90;;;;;;5105671;28;20203;-69
2023/05/13 01:30:23;;;;;;;1.80;1.70;;;11.50;99.90;;;;;;5107459;28;20637;-69
2023/05/13 01:32:51;;;;;;;3.27;2.40;;;11.40;99.90;;;;;;5100510;27;20628;-70
2023/05/13 01:35:19;;;;;;;3.10;2.27;;;11.40;99.90;;;;;;5108306;28;20622;-70
2023/05/13 01:37:47;;;;;;;1.87;1.77;;;11.20;99.90;;;;;;5107304;28;20626;-70
2023/05/13 01:40:16;;;;;;;2.07;1.97;;;11.20;99.90;;;;;;5106842;28;20679;-70
2023/05/13 01:42:44;;;;;;;2.00;1.90;;;11.10;99.90;;;;;;5108179;28;20628;-70
2023/05/13 01:45:12;;;;;;;2.17;2.00;;;11.10;99.90;;;;;;5108231;28;20624;-70
2023/05/13 01:47:39;;;;;;;1.90;1.50;;;11.00;99.90;;;;;;5107246;28;21096;-70
2023/05/13 01:50:08;;;;;;;2.50;2.30;;;11.00;99.90;;;;;;5106434;28;20632;-70
2023/05/13 01:52:36;;;;;;;2.63;2.43;;;11.00;99.90;;;;;;5107830;28;20634;-70
2023/05/13 01:55:04;;;;;;;1.83;1.73;;;11.00;99.90;;;;;;5107454;28;21059;-70
2023/05/13 01:57:32;;;;;;;1.70;1.60;;;11.00;99.90;;;;;;5108008;28;20618;-69
2023/05/13 01:59:59;;;;;;;1.83;1.73;;;10.90;99.90;;;;;;5104895;28;20625;-69
2023/05/13 02:02:27;;;;;;;4.87;2.63;;;10.80;99.90;;;;;;5108445;28;20652;-69
2023/05/13 02:04:55;;;;;;;2.17;1.97;;;10.70;99.90;;;;;;5112397;28;20669;-69
2023/05/13 02:07:23;;;;;;;2.00;1.90;;;10.60;99.90;;;;;;5103368;28;20645;-69
2023/05/13 02:09:54;;;;;;;2.33;1.40;;;10.50;99.90;;;;;;5111218;27;20728;-70
2023/05/13 02:12:21;;;;;;;2.30;1.87;;;10.40;99.90;;;;;;5112018;28;20753;-70
2023/05/13 02:14:52;;;;;;;1.90;1.80;;;10.50;99.90;;;;;;5110117;28;20738;-70
2023/05/13 02:17:19;;;;;;;3.07;2.77;;;10.60;99.90;;;;;;5110992;28;20645;-70
2023/05/13 02:19:45;;;;;;;1.83;1.40;;;10.60;99.90;;;;;;5107907;28;20712;-69
2023/05/13 02:22:12;;;;;;;2.17;1.90;;;10.60;99.90;;;;;;5111575;28;20641;-69
2023/05/13 02:24:40;;;;;;;2.07;1.70;;;10.60;99.90;;;;;;5111558;28;21089;-69
2023/05/13 02:27:07;;;;;;;1.47;1.37;;;10.60;99.90;;;;;;5111448;28;20662;-69
2023/05/13 02:29:34;;;;;;;2.37;2.17;;;10.50;99.90;;;;;;5110357;28;20753;-71
2023/05/13 02:32:03;;;;;;;2.00;1.40;;;10.60;99.90;;;;;;5111220;28;20758;-69
2023/05/13 02:34:31;;;;;;;2.57;1.90;;;10.50;99.90;;;;;;5108637;28;20626;-69
2023/05/13 02:36:58;;;;;;;2.43;2.30;;;10.50;99.90;;;;;;5111464;28;21008;-71
2023/05/13 02:39:26;;;;;;;3.70;1.90;;;10.40;99.90;;;;;;5110617;28;20625;-69
2023/05/13 02:41:54;;;;;;;2.37;1.97;;;10.40;99.90;;;;;;5110984;28;20656;-69
2023/05/13 02:44:21;;;;;;;1.90;1.80;;;10.40;99.90;;;;;;5110498;28;20753;-70
2023/05/13 02:46:50;;;;;;;1.73;1.63;;;10.30;99.90;;;;;;5110775;28;20664;-69
2023/05/13 02:49:19;;;;;;;1.40;1.30;;;10.30;99.90;;;;;;5109714;28;20660;-71
2023/05/13 02:51:47;;;;;;;1.53;1.43;;;10.20;99.90;;;;;;5110965;28;20672;-69
2023/05/13 02:54:14;;;;;;;2.30;2.00;;;10.20;99.90;;;;;;5111078;28;20747;-69
2023/05/13 02:56:40;;;;;;;2.63;2.43;;;10.20;99.90;;;;;;5110916;28;21265;-69
2023/05/13 02:59:09;;;;;;;1.90;1.80;;;10.30;99.90;;;;;;5110179;28;20632;-70
2023/05/13 03:01:35;;;;;;;1.87;1.77;;;10.30;99.90;;;;;;5110130;28;21085;-70
2023/05/13 03:04:03;;;;;;;2.07;1.97;;;10.30;99.90;;;;;;5111324;28;20628;-70
2023/05/13 03:06:32;;;;;;;1.30;1.20;;;10.40;99.90;;;;;;5102823;28;21054;-70
2023/05/13 03:09:00;;;;;;;2.10;2.00;;;10.40;99.90;;;;;;5110893;27;20726;-70
2023/05/13 03:11:27;;;;;;;1.63;1.53;;;10.50;99.90;;;;;;5110240;28;20645;-70
2023/05/13 03:13:54;;;;;;;1.90;1.80;;;10.50;99.90;;;;;;5109341;28;20620;-70
2023/05/13 03:16:22;;;;;;;2.30;1.53;;;10.50;99.90;;;;;;5110509;28;20636;-70
2023/05/13 03:18:49;;;;;;;1.60;1.50;;;10.50;99.90;;;;;;5110317;28;21041;-70
2023/05/13 03:21:17;;;;;;;1.87;1.70;;;10.40;99.90;;;;;;5109780;28;20638;-70
2023/05/13 03:23:47;;;;;;;3.70;2.70;;;10.40;99.90;;;;;;5110029;28;21167;-70
2023/05/13 03:26:13;;;;;;;1.90;1.80;;;10.40;99.90;;;;;;5109947;28;20689;-70
2023/05/13 03:28:41;;;;;;;2.43;2.23;;;10.50;99.90;;;;;;5109752;28;20640;-70
2023/05/13 03:31:09;;;;;;;2.37;2.17;;;10.50;99.90;;;;;;5109865;28;20662;-70
2023/05/13 03:33:36;;;;;;;1.90;1.60;;;10.60;99.90;;;;;;5109592;28;20633;-70
2023/05/13 03:36:03;;;;;;;1.60;1.50;;;10.50;99.90;;;;;;5110129;27;21412;-71
2023/05/13 03:38:30;;;;;;;2.17;1.60;;;10.30;99.90;;;;;;5110224;28;20623;-70
2023/05/13 03:40:58;;;;;;;2.40;1.70;;;10.40;99.90;;;;;;5109126;28;20641;-70
2023/05/13 03:43:25;;;;;;;1.50;1.40;;;10.40;99.90;;;;;;5110119;28;20978;-70
2023/05/13 03:45:52;;;;;;;2.13;1.93;;;10.40;99.90;;;;;;5110280;28;20638;-69
2023/05/13 03:48:19;;;;;;;2.00;1.90;;;10.40;99.90;;;;;;5107401;28;20688;-69
2023/05/13 03:50:46;;;;;;;2.20;1.90;;;10.40;99.90;;;;;;5108968;28;20649;-71
2023/05/13 03:53:13;;;;;;;2.27;1.30;;;10.50;99.90;;;;;;5110094;28;21192;-69
2023/05/13 03:55:40;;;;;;;1.90;1.70;;;10.50;99.90;;;;;;5109066;28;21029;-69
2023/05/13 03:58:15;;;;;;;1.87;1.77;;;10.50;99.90;;;;;;5109666;28;20609;-70
2023/05/13 04:00:45;;;;;;;1.03;1.03;;;10.40;99.90;;;;;;5101878;28;20644;-70
2023/05/13 04:03:12;;;;;;;2.80;2.17;;;10.40;99.90;;;;;;5110181;27;20664;-70
2023/05/13 04:05:39;;;;;;;1.67;1.57;;;10.40;99.90;;;;;;5099976;28;20641;-70
2023/05/13 04:08:05;;;;;;;1.80;1.70;;;10.30;99.90;;;;;;5104257;28;20658;-70
2023/05/13 04:10:32;;;;;;;1.70;1.50;;;10.30;99.90;;;;;;5108952;28;20648;-70
2023/05/13 04:12:59;;;;;;;2.17;2.00;;;10.40;99.90;;;;;;5109264;28;21158;-70
2023/05/13 04:15:27;;;;;;;1.63;1.50;;;10.30;99.90;;;;;;5109529;27;20653;-69
2023/05/13 04:17:54;;;;;;;1.90;1.77;;;10.40;99.90;;;;;;5108772;28;20622;-70
2023/05/13 04:20:21;;;;;;;2.03;1.93;;;10.40;99.90;;;;;;5108813;28;20860;-70
2023/05/13 04:22:48;;;;;;;2.10;1.53;;;10.40;99.90;;;;;;5108747;27;20634;-70
2023/05/13 04:25:15;;;;;;;1.50;1.40;;;10.40;99.90;;;;;;5109539;28;20622;-70
2023/05/13 04:27:42;;;;;;;1.60;1.50;;;10.40;99.90;;;;;;5107872;28;20665;-70
2023/05/13 04:30:10;;;;;;;3.73;2.00;;;10.40;99.90;;;;;;5107753;28;21186;-70
2023/05/13 04:32:38;;;;;;;2.47;1.80;;;10.50;99.90;;;;;;5109226;28;20622;-70
2023/05/13 04:35:06;;;;;;;1.37;1.27;;;10.40;99.90;;;;;;5108807;28;20632;-70
2023/05/13 04:37:33;;;;;;;1.80;1.70;;;10.30;99.90;;;;;;5109393;28;20730;-70
2023/05/13 04:40:00;;;;;;;1.77;1.67;;;10.30;99.90;;;;;;5108125;27;20626;-70
2023/05/13 04:42:27;;;;;;;1.90;1.80;;;10.20;99.90;;;;;;5104717;28;20661;-70
2023/05/13 04:44:54;;;;;;;2.90;2.00;;;10.30;99.90;;;;;;5099330;28;20728;-70
2023/05/13 04:47:20;;;;;;;2.40;2.17;;;10.40;99.90;;;;;;5105045;28;20666;-70
2023/05/13 04:49:48;;;;;;;2.70;2.07;;;10.50;99.90;;;;;;5106702;28;21195;-70
2023/05/13 04:52:15;;;;;;;1.70;1.60;;;10.60;99.90;;;;;;5105090;28;21222;-69
2023/05/13 04:54:42;;;;;;;2.20;2.00;;;10.50;99.90;;;;;;5100468;28;20993;-70
2023/05/13 04:57:09;;;;;;;1.40;1.13;;;10.50;99.90;;;;;;5105002;27;20630;-70
2023/05/13 04:59:36;;;;;;;2.90;1.70;;;10.50;99.90;;;;;;5100184;28;20625;-70
2023/05/13 05:02:02;;;;;;;1.80;1.70;;;10.50;99.90;;;;;;5105315;27;20650;-70
2023/05/13 05:04:29;;;;;;;2.10;1.90;;;10.60;99.90;;;;;;5104269;28;20623;-70
2023/05/13 05:06:58;;;;;;;1.80;1.60;;;10.60;99.90;;;;;;5104575;28;20671;-69
2023/05/13 05:09:24;;;;;;;1.97;1.53;;;10.50;99.90;;;;;;5104761;28;20614;-71
2023/05/13 05:11:51;;;;;;;1.93;1.73;;;10.50;99.90;;;;;;5102736;28;20659;-70
2023/05/13 05:14:19;;;;;;;2.20;2.00;;;10.50;99.90;;;;;;5100893;27;20638;-70
2023/05/13 05:16:45;;;;;;;2.97;1.73;;;10.50;99.90;;;;;;5109568;27;21613;-70
2023/05/13 05:19:12;;;;;;;1.77;1.63;;;10.60;99.90;;;;;;5103451;28;20633;-70
2023/05/13 05:21:39;;;;;;;2.10;1.80;;;10.70;99.90;;;;;;5107363;28;20656;-70
2023/05/13 05:24:08;;;;;;;1.63;1.03;;;10.60;99.90;;;;;;5103313;28;20626;-69
2023/05/13 05:26:34;;;;;;;2.10;1.80;;;10.60;99.90;;;;;;5106346;28;20654;-70
2023/05/13 05:29:01;;;;;;;1.80;1.50;;;10.60;99.90;;;;;;5105198;28;20664;-70
2023/05/13 05:31:28;;;;;;;1.93;1.73;;;10.60;99.90;;;;;;5099204;28;20661;-70
2023/05/13 05:33:55;;;;;;;2.07;1.87;;;10.50;99.90;;;;;;5100161;28;20634;-70
2023/05/13 05:36:22;;;;;;;1.40;1.30;;;10.60;99.90;;;;;;5102070;28;20953;-70
2023/05/13 05:38:48;;;;;;;1.77;1.67;;;10.60;99.90;;;;;;5105288;28;20633;-70
2023/05/13 05:41:17;;;;;;;3.23;1.97;;;10.70;99.90;;;;;;5101466;27;20660;-70
2023/05/13 05:43:43;;;;;;;1.87;1.77;;;10.60;99.90;;;;;;5106894;28;20625;-70
2023/05/13 05:46:10;;;;;;;3.07;2.13;;;10.60;99.90;;;;;;5107366;28;20653;-70
2023/05/13 05:48:37;;;;;;;2.97;2.67;;;10.60;99.90;;;;;;5106562;28;20653;-70
2023/05/13 05:51:04;;;;;;;1.97;1.57;;;10.60;99.90;;;;;;5103945;28;20654;-70
2023/05/13 05:53:31;;;;;;;2.17;1.63;;;10.80;99.90;;;;;;5107966;28;21267;-70
2023/05/13 05:55:58;;;;;;;1.97;1.70;;;10.80;99.90;;;;;;5107681;28;20969;-70
2023/05/13 05:58:26;;;;;;;1.30;1.30;;;10.80;99.90;;;;;;5106944;28;20619;-70
2023/05/13 06:00:54;;;;;;;1.80;1.70;;;10.80;99.90;;;;;;5106983;28;20641;-70
2023/05/13 06:03:21;;;;;;;2.03;1.70;;;10.70;99.90;;;;;;5107035;28;20629;-70
2023/05/13 06:05:47;;;;;;;1.77;1.67;;;10.70;99.90;;;;;;5104195;28;21061;-70
2023/05/13 06:08:14;;;;;;;1.60;1.17;;;10.70;99.90;;;;;;5103696;28;20649;-70
2023/05/13 06:10:41;;;;;;;2.80;2.60;;;10.80;99.90;;;;;;5106941;28;20645;-70
2023/05/13 06:13:08;;;;;;;4.20;2.30;;;10.80;99.90;;;;;;5107084;28;20636;-70
2023/05/13 06:15:37;;;;;;;2.60;1.60;;;10.80;99.90;;;;;;5107833;28;21134;-70
2023/05/13 06:18:04;;;;;;;2.90;2.70;;;10.80;99.90;;;;;;5107347;28;20623;-71
2023/05/13 06:20:31;;;;;;;6.77;1.83;;;10.80;99.90;;;;;;5106809;28;20650;-70
2023/05/13 06:22:58;;;;;;;2.17;2.07;;;10.80;99.90;;;;;;5107904;28;20642;-70
2023/05/13 06:25:25;;;;;;;2.07;1.90;;;10.70;99.90;;;;;;5106770;28;21083;-69
2023/05/13 06:27:52;;;;;;;2.03;1.70;;;10.70;99.90;;;;;;5107652;27;20657;-69
2023/05/13 06:30:18;;;;;;;1.60;1.37;;;10.80;99.90;;;;;;5103378;28;20726;-70
2023/05/13 06:32:47;;;;;;;2.87;1.90;;;10.80;99.90;;;;;;5104442;28;20632;-70
2023/05/13 06:35:13;;;;;;;2.17;2.07;;;10.90;99.90;;;;;;5107555;28;20629;-69
2023/05/13 06:37:40;;;;;;;2.33;2.13;;;10.70;99.90;;;;;;5107408;28;20628;-70
2023/05/13 06:40:08;;;;;;;4.30;2.53;;;10.80;99.90;;;;;;5105391;28;21163;-69
2023/05/13 06:42:39;;;;;;;3.37;2.60;;;10.70;99.90;;;;;;5106890;28;20945;-70
2023/05/13 06:45:07;;;;;;;3.90;3.27;;;10.90;99.90;;;;;;5107416;28;20625;-70
2023/05/13 06:47:34;;;;;;;2.20;1.90;;;10.80;99.90;;;;;;5106803;28;21009;-70
2023/05/13 06:50:03;;;;;;;2.97;2.77;;;10.90;99.90;;;;;;5105009;28;20616;-70
2023/05/13 06:52:30;;;;;;;2.07;1.87;;;11.00;99.90;;;;;;5111042;28;20630;-70
2023/05/13 06:54:58;;;;;;;1.90;1.80;;;11.00;99.90;;;;;;5110782;28;20606;-70
2023/05/13 06:57:25;;;;;;;1.97;1.73;;;11.00;99.90;;;;;;5110895;28;20789;-73
2023/05/13 06:59:52;;;;;;;2.23;2.10;;;11.10;99.90;;;;;;5109825;28;20982;-69
2023/05/13 07:02:19;;;;;;;2.20;1.73;;;11.30;99.90;;;;;;5110797;28;20650;-69
2023/05/13 07:04:46;;;;;;;9.00;2.10;;;11.30;99.90;;;;;;5106604;28;20629;-69
2023/05/13 07:07:14;;;;;;;2.87;2.60;;;11.40;99.90;;;;;;5102788;28;20657;-69
2023/05/13 07:09:41;;;;;;;2.47;2.27;;;11.40;99.90;;;;;;5109979;28;20618;-69
2023/05/13 07:12:09;;;;;;;2.93;2.00;;;11.60;99.90;;;;;;5110856;28;20645;-69
2023/05/13 07:14:36;;;;;;;2.90;1.97;;;11.50;99.90;;;;;;5110622;28;20966;-71
2023/05/13 07:17:03;;;;;;;3.27;2.27;;;11.60;99.90;;;;;;5110635;27;20629;-71
2023/05/13 07:19:30;;;;;;;3.43;2.27;;;11.60;99.90;;;;;;5109302;28;20637;-70
2023/05/13 07:21:56;;;;;;;5.03;2.50;;;11.70;99.90;;;;;;5101868;28;20720;-70
2023/05/13 07:24:25;;;;;;;2.70;2.50;;;11.50;99.90;;;;;;5109835;28;20636;-69
2023/05/13 07:26:51;;;;;;;2.63;1.90;;;11.50;99.90;;;;;;5109830;28;20752;-69
2023/05/13 07:29:18;;;;;;;2.57;2.37;;;11.60;99.90;;;;;;5110189;28;20657;-71
2023/05/13 07:31:45;;;;;;;2.53;2.33;;;11.70;99.90;;;;;;5109718;27;20654;-69
2023/05/13 07:34:12;;;;;;;5.87;2.57;;;11.70;99.90;;;;;;5108305;28;20630;-69
2023/05/13 07:36:38;;;;;;;2.80;2.60;;;11.90;99.90;;;;;;5108590;28;20662;-71
2023/05/13 07:39:07;;;;;;;4.07;2.00;;;11.70;99.90;;;;;;5110194;28;20636;-69
2023/05/13 07:41:36;;;;;;;2.33;2.13;;;11.80;99.90;;;;;;5109284;28;20722;-69
2023/05/13 07:44:04;;;;;;;7.53;3.33;;;11.70;99.90;;;;;;5110179;28;20626;-70
2023/05/13 07:46:34;;;;;;;4.30;3.10;;;11.90;99.90;;;;;;5109640;28;20656;-70
2023/05/13 07:49:05;;;;;;;3.57;2.70;;;12.10;99.90;;;;;;5108706;28;20650;-70
2023/05/13 07:51:32;;;;;;;3.20;2.90;;;12.30;99.90;;;;;;5108165;28;21001;-70
2023/05/13 07:53:59;;;;;;;2.70;2.50;;;12.20;99.90;;;;;;5108866;28;20988;-70
2023/05/13 07:56:26;;;;;;;2.63;2.40;;;12.10;99.90;;;;;;5109199;28;21065;-70
2023/05/13 07:58:54;;;;;;;4.97;2.23;;;12.20;99.90;;;;;;5107964;28;20725;-69
2023/05/13 08:01:21;;;;;;;2.40;2.27;;;12.00;99.90;;;;;;5108248;27;20741;-71
2023/05/13 08:03:48;;;;;;;3.40;2.70;;;11.90;99.90;;;;;;5108807;27;20629;-71
2023/05/13 08:06:14;;;;;;;2.40;2.20;;;12.00;99.90;;;;;;5101811;28;20650;-71
2023/05/13 08:08:41;;;;;;;2.27;2.17;;;11.90;99.90;;;;;;5100918;28;20650;-71
2023/05/13 08:11:08;;;;;;;2.70;2.03;;;12.00;99.90;;;;;;5109123;28;20642;-70
2023/05/13 08:13:35;;;;;;;3.37;3.07;;;12.10;99.90;;;;;;5109397;28;20638;-71
2023/05/13 08:16:03;;;;;;;3.30;3.00;;;12.30;99.90;;;;;;5094619;28;20748;-70
2023/05/13 08:18:30;;;;;;;1.97;1.83;;;12.40;99.90;;;;;;5109241;28;20287;-71
2023/05/13 08:20:56;;;;;;;2.93;2.67;;;12.50;99.90;;;;;;5107098;28;20660;-71
2023/05/13 08:23:24;;;;;;;2.90;2.60;;;12.40;99.90;;;;;;5105782;28;20978;-72
2023/05/13 08:25:51;;;;;;;2.50;2.30;;;12.30;99.90;;;;;;5100543;28;20758;-72
2023/05/13 08:28:18;;;;;;;2.80;2.10;;;12.30;99.90;;;;;;5107080;28;20653;-72
2023/05/13 08:30:44;;;;;;;3.20;2.90;;;12.40;99.90;;;;;;5106457;28;21347;-72
2023/05/13 08:33:13;;;;;;;2.60;2.40;;;12.40;99.90;;;;;;5106779;28;20839;-72
2023/05/13 08:35:39;;;;;;;4.00;3.60;;;12.40;99.90;;;;;;5102172;28;20750;-72
2023/05/13 08:38:06;;;;;;;3.40;2.47;;;12.20;99.90;;;;;;5108875;28;20205;-72
2023/05/13 08:40:33;;;;;;;2.60;1.90;;;12.40;99.90;;;;;;5108302;28;20650;-72
2023/05/13 08:43:01;;;;;;;3.07;2.70;;;12.30;99.90;;;;;;5107867;28;20637;-73
2023/05/13 08:45:30;;;;;;;2.73;2.53;;;12.20;99.90;;;;;;5108740;28;20646;-72
2023/05/13 08:48:00;;;;;;;3.33;3.03;;;12.10;99.90;;;;;;5108882;28;20619;-70
2023/05/13 08:50:29;;;;;;;2.13;2.00;;;12.10;99.90;;;;;;5108287;28;20673;-70
2023/05/13 08:52:58;;;;;;;3.70;2.60;;;12.10;99.90;;;;;;5108598;28;20637;-70
2023/05/13 08:55:26;;;;;;;2.17;2.07;;;12.00;99.90;;;;;;5104688;28;21256;-70
2023/05/13 08:57:53;;;;;;;2.80;2.27;;;12.10;99.90;;;;;;5107745;28;20616;-70
2023/05/13 09:00:20;;;;;;;2.67;2.17;;;12.00;99.90;;;;;;5107967;28;20623;-70
2023/05/13 09:02:48;;;;;;;4.67;2.97;;;12.00;99.90;;;;;;5108532;28;20718;-71
2023/05/13 09:05:15;;;;;;;4.10;3.37;;;12.10;99.90;;;;;;5107966;28;20630;-69
2023/05/13 09:07:44;;;;;;;2.53;2.33;;;12.20;99.90;;;;;;5101118;28;20630;-69
2023/05/13 09:10:11;;;;;;;3.80;2.57;;;12.20;99.90;;;;;;5107425;28;21018;-69
2023/05/13 09:12:45;;;;;;;1.73;1.57;;;12.30;99.90;;;;;;5107865;28;20626;-70
2023/05/13 09:15:14;;;;;;;3.43;2.40;;;12.20;99.90;;;;;;5108007;28;20633;-70
2023/05/13 09:17:42;;;;;;;3.97;2.37;;;12.20;99.90;;;;;;5108675;28;20613;-70
2023/05/13 09:20:11;;;;;;;2.83;2.00;;;12.30;99.90;;;;;;5107612;28;20700;-71
2023/05/13 09:22:44;;;;;;;2.80;2.23;;;12.30;99.90;;;;;;5108391;28;20626;-71
2023/05/13 09:25:13;;;;;;;2.37;1.70;;;12.30;99.90;;;;;;5105734;28;20633;-71
2023/05/13 09:27:44;;;;;;;2.83;2.50;;;12.40;99.90;;;;;;5105874;28;20618;-70
2023/05/13 09:30:11;;;;;;;2.37;2.17;;;12.40;99.90;;;;;;5106564;28;21256;-70
2023/05/13 09:32:38;;;;;;;2.87;2.67;;;12.30;99.90;;;;;;5105431;28;20631;-70
2023/05/13 09:35:10;;;;;;;2.90;2.10;;;12.30;99.90;;;;;;5095779;28;20643;-70
2023/05/13 09:37:37;;;;;;;3.03;2.70;;;12.20;99.90;;;;;;5100588;28;20630;-69
2023/05/13 09:40:06;;;;;;;2.53;2.33;;;12.40;99.90;;;;;;5106586;28;20622;-71
2023/05/13 09:42:33;;;;;;;1.60;1.50;;;12.50;99.90;;;;;;5102202;28;20625;-69
2023/05/13 09:45:05;;;;;;;5.80;3.70;;;12.50;99.90;;;;;;5101040;28;20634;-69
2023/05/13 09:47:32;;;;;;;2.80;2.60;;;12.40;99.90;;;;;;5107615;28;20624;-69
2023/05/13 09:50:02;;;;;;;3.00;2.13;;;12.30;99.90;;;;;;5105987;28;20654;-67
2023/05/13 09:52:30;;;;;;;3.67;1.97;;;12.50;99.90;;;;;;5107224;28;21050;-68
2023/05/13 09:54:57;;;;;;;2.20;1.77;;;12.70;99.90;;;;;;5108041;28;20634;-69
2023/05/13 09:57:27;;;;;;;2.87;2.67;;;12.80;99.90;;;;;;5108061;28;20678;-69
2023/05/13 09:59:57;;;;;;;3.03;2.40;;;13.00;99.90;;;;;;5106003;28;20622;-69
2023/05/13 10:02:25;;;;;;;3.83;3.00;;;13.00;99.80;;;;;;5104641;28;20638;-68
2023/05/13 10:04:54;;;;;;;10.20;9.00;;;12.90;99.90;;;;;;5107498;28;20635;-69
2023/05/13 10:07:23;;;;;;;4.10;2.90;;;12.90;99.90;;;;;;5100462;28;20646;-72
2023/05/13 10:09:52;;;;;;;2.03;1.83;;;12.90;99.90;;;;;;5106340;28;21160;-70
2023/05/13 10:12:20;;;;;;;2.30;2.07;;;12.80;99.90;;;;;;5107338;28;20647;-73
2023/05/13 10:14:50;;;;;;;2.70;2.50;;;13.00;99.90;;;;;;5105414;28;20637;-70
2023/05/13 10:17:17;;;;;;;5.23;2.07;;;13.10;99.90;;;;;;5107574;28;20651;-71
2023/05/13 10:19:44;;;;;;;2.63;2.10;;;13.20;99.70;;;;;;5106709;28;20631;-71
2023/05/13 10:22:11;;;;;;;3.63;2.27;;;13.40;99.30;;;;;;5108001;28;20654;-72
2023/05/13 10:24:39;;;;;;;2.67;2.47;;;13.50;99.50;;;;;;5103748;28;20638;-73
2023/05/13 10:27:06;;;;;;;1.67;1.57;;;13.50;99.70;;;;;;5111045;28;20657;-73
2023/05/13 10:29:35;;;;;;;2.37;1.50;;;13.60;99.30;;;;;;5110162;28;20651;-72
2023/05/13 10:32:05;;;;;;;2.00;1.80;;;13.70;98.40;;;;;;5102773;28;20651;-73
2023/05/13 10:34:33;;;;;;;1.70;1.60;;;13.80;98.20;;;;;;5110494;28;20742;-73
2023/05/13 10:37:18;;;;;;;2.07;1.93;;;13.90;98.60;;;;;;5110920;28;20647;-73
2023/05/13 10:40:33;;;;;;;1.90;1.70;;;13.90;98.80;;;;;;5110043;28;20627;-73
2023/05/13 10:43:11;;;;;;;1.83;1.60;;;14.00;99.00;;;;;;5029074;28;20649;-73
2023/05/13 10:45:38;;;;;;;2.00;1.80;;;14.20;98.50;;;;;;5104941;28;21141;-72
2023/05/13 10:48:12;;;;;;;1.63;1.40;;;14.30;97.40;;;;;;5110135;28;20630;-72
2023/05/13 10:50:39;;;;;;;1.30;1.17;;;14.50;97.40;;;;;;5109935;28;20997;-72
2023/05/13 10:53:17;;;;;;;1.57;1.47;;;14.50;96.90;;;;;;5110063;28;20638;-72
2023/05/13 10:55:45;;;;;;;1.27;1.20;;;14.60;96.70;;;;;;5110592;28;20644;-72
2023/05/13 10:58:13;;;;;;;1.00;1.00;;;14.60;96.50;;;;;;5109156;28;21176;-71
2023/05/13 11:00:42;;;;;;;1.17;1.13;;;14.70;96.60;;;;;;5109290;27;20642;-72
2023/05/13 11:03:15;;;;;;;1.30;1.00;;;14.70;96.70;;;;;;5111355;28;20636;-71
2023/05/13 11:05:46;;;;;;;1.20;1.10;;;14.70;96.70;;;;;;5100155;28;20645;-70
2023/05/13 11:08:32;;;;;;;1.87;1.60;;;14.70;96.20;;;;;;5105144;28;20721;-71
2023/05/13 11:10:59;;;;;;;1.77;1.67;;;14.70;96.90;;;;;;5103919;28;20651;-71
2023/05/13 11:13:35;;;;;;;2.43;2.10;;;14.40;97.80;;;;;;5110885;28;21192;-71
2023/05/13 11:16:06;;;;;;;7.23;2.53;;;14.30;98.10;;;;;;5110414;28;20751;-71
2023/05/13 11:18:35;;;;;;;2.27;2.07;;;14.20;98.30;;;;;;5110107;28;20628;-71
2023/05/13 11:21:03;;;;;;;2.80;2.60;;;14.00;99.10;;;;;;5109578;28;20680;-71
2023/05/13 11:23:33;;;;;;;2.63;2.43;;;13.90;99.00;;;;;;5110527;28;20616;-72
2023/05/13 11:26:11;;;;;;;2.20;2.03;;;13.90;99.10;;;;;;5102113;28;20665;-72
2023/05/13 11:28:57;;;;;;;3.20;2.30;;;13.70;99.40;;;;;;5109796;28;21194;-72
2023/05/13 11:31:25;;;;;;;3.60;2.07;;;13.50;99.60;;;;;;5109491;28;20855;-72
2023/05/13 11:34:10;;;;;;;3.67;2.77;;;13.60;99.00;;;;;;5109872;28;20635;-73
2023/05/13 11:36:39;;;;;;;4.20;2.30;;;13.50;99.30;;;;;;5107356;28;20646;-70
2023/05/13 11:39:09;;;;;;;3.40;2.07;;;13.40;99.90;;;;;;5109075;28;20631;-70
2023/05/13 11:41:37;;;;;;;3.43;2.57;;;13.30;99.90;;;;;;5109553;28;20680;-70
2023/05/13 11:44:05;;;;;;;2.03;1.93;;;13.20;99.90;;;;;;5110493;28;20627;-70
2023/05/13 11:46:32;;;;;;;3.17;2.87;;;13.20;99.90;;;;;;5108602;28;21058;-71
2023/05/13 11:48:59;;;;;;;3.10;2.90;;;13.30;99.90;;;;;;5105539;28;20670;-72
2023/05/13 11:51:27;;;;;;;2.77;2.47;;;13.20;99.90;;;;;;5109662;28;20653;-71
2023/05/13 11:54:00;;;;;;;2.97;2.20;;;13.30;99.90;;;;;;5110143;28;20627;-71
2023/05/13 11:56:28;;;;;;;2.73;2.50;;;13.30;99.90;;;;;;5101590;28;20652;-71
2023/05/13 11:58:55;;;;;;;2.97;2.77;;;13.30;99.90;;;;;;5107768;28;20623;-72
2023/05/13 12:01:22;;;;;;;2.20;2.00;;;13.30;99.90;;;;;;5108973;28;20636;-73
2023/05/13 12:03:49;;;;;;;1.80;1.70;;;13.40;99.90;;;;;;5110329;27;20678;-72
2023/05/13 12:06:15;;;;;;;2.10;1.73;;;13.50;99.90;;;;;;5100899;28;20649;-72
2023/05/13 12:08:47;;;;;;;3.77;2.37;;;13.70;99.80;;;;;;5106906;28;20628;-72
2023/05/13 12:11:13;;;;;;;2.67;2.33;;;13.70;99.80;;;;;;5104820;28;20672;-72
2023/05/13 12:13:41;;;;;;;2.77;2.40;;;13.80;99.50;;;;;;5109327;28;20718;-72
2023/05/13 12:16:09;;;;;;;3.07;2.80;;;13.80;99.50;;;;;;5109427;28;20655;-72
2023/05/13 12:18:37;;;;;;;3.40;2.50;;;13.90;99.00;;;;;;5109037;28;20624;-71
2023/05/13 12:21:16;;;;;;;2.60;2.40;;;13.70;99.70;;;;;;5108978;28;20672;-71
2023/05/13 12:23:42;;;;;;;1.57;1.47;;;13.60;99.60;;;;;;5109953;28;20621;-72
2023/05/13 12:26:11;;;;;;;4.37;2.60;;;13.60;99.50;;;;;;5108799;28;20641;-72
2023/05/13 12:28:38;;;;;;;2.43;2.17;;;13.70;99.90;;;;;;5108066;28;20622;-72
2023/05/13 12:31:05;;;;;;;3.03;2.60;;;13.90;99.90;;;;;;5108302;28;20671;-72
2023/05/13 12:33:33;;;;;;;2.43;1.87;;;14.00;99.80;;;;;;5106718;28;20643;-72
2023/05/13 12:36:16;;;;;;;4.13;3.10;;;14.20;98.60;;;;;;5109248;28;20663;-72
2023/05/13 12:38:57;;;;;;;2.67;2.47;;;14.20;98.30;;;;;;5107940;28;20629;-72
2023/05/13 12:41:28;;;;;;;2.67;2.47;;;14.30;98.40;;;;;;5101080;28;21461;-72
2023/05/13 12:43:59;;;;;;;3.77;2.87;;;14.30;99.40;;;;;;5109193;28;20621;-72
2023/05/13 12:46:27;;;;;;;2.60;2.13;;;14.30;99.40;;;;;;5108873;28;20656;-72
2023/05/13 12:48:59;;;;;;;2.37;2.20;;;14.40;99.20;;;;;;5106092;28;21266;-74
2023/05/13 12:51:28;;;;;;;3.23;2.20;;;14.60;98.10;;;;;;5096659;28;21008;-73
2023/05/13 12:53:55;;;;;;;2.30;2.10;;;14.60;98.40;;;;;;5107275;28;20627;-72